DLH63 EPWA-EYVI
Flight info
| Callsign | DLH63 |
|---|---|
| Flight time | 0h 41m |
| Altitude | 31000 |
| Route | BAMSO Z182 ASLUX Z460 XESNA M857 BULEP DCT OFEDE DCT LIZUP DCT DIMTA |
| Aircraft | A320/M-SDE3FGHIRWY/LB1 |
Departure
| Time | 2026-05-04 19:19 |
|---|---|
| Airport | Warsaw Chopin Airport (EPWA) |
Arrival
| Time | 2026-05-04 20:00 |
|---|---|
| Airport | Vilnius International Airport (EYVI) |
| Time | Latitude | Longitude | Altitude | Speed | Heading |
|---|---|---|---|---|---|
| 2026-05-04 18:24 | 52.16946 | 20.96935 | 352 ft | 0 kts | 242° |
| 2026-05-04 18:59 | 52.16949 | 20.96943 | 359 ft | 2 kts | 242° |
| 2026-05-04 19:00 | 52.16956 | 20.96968 | 352 ft | 2 kts | 219° |
| 2026-05-04 19:00 | 52.16971 | 20.96982 | 359 ft | 2 kts | 210° |
| 2026-05-04 19:00 | 52.16986 | 20.96995 | 355 ft | 2 kts | 169° |
| 2026-05-04 19:00 | 52.16994 | 20.96992 | 355 ft | 0 kts | 146° |
| 2026-05-04 19:02 | 52.16988 | 20.96998 | 356 ft | 3 kts | 145° |
| 2026-05-04 19:02 | 52.16947 | 20.97034 | 358 ft | 11 kts | 159° |
| 2026-05-04 19:02 | 52.16854 | 20.97101 | 352 ft | 18 kts | 150° |
| 2026-05-04 19:03 | 52.16722 | 20.97224 | 354 ft | 25 kts | 150° |
| 2026-05-04 19:03 | 52.16591 | 20.97340 | 355 ft | 19 kts | 143° |
| 2026-05-04 19:03 | 52.16526 | 20.97559 | 358 ft | 25 kts | 114° |
| 2026-05-04 19:03 | 52.16440 | 20.97845 | 359 ft | 31 kts | 116° |
| 2026-05-04 19:04 | 52.16348 | 20.98171 | 355 ft | 29 kts | 113° |
| 2026-05-04 19:04 | 52.16324 | 20.98262 | 358 ft | 9 kts | 113° |
| 2026-05-04 19:04 | 52.16300 | 20.98350 | 361 ft | 0 kts | 115° |
| 2026-05-04 19:13 | 52.16284 | 20.98405 | 357 ft | 13 kts | 116° |
| 2026-05-04 19:13 | 52.16214 | 20.98457 | 352 ft | 12 kts | 199° |
| 2026-05-04 19:14 | 52.16208 | 20.98454 | 352 ft | 0 kts | 198° |
| 2026-05-04 19:16 | 52.16208 | 20.98453 | 352 ft | 0 kts | 198° |
| 2026-05-04 19:16 | 52.16207 | 20.98453 | 352 ft | 1 kts | 199° |
| 2026-05-04 19:16 | 52.16149 | 20.98402 | 359 ft | 15 kts | 224° |
| 2026-05-04 19:16 | 52.16146 | 20.98236 | 359 ft | 16 kts | 295° |
| 2026-05-04 19:17 | 52.16153 | 20.98211 | 356 ft | 0 kts | 295° |
| 2026-05-04 19:18 | 52.16154 | 20.98208 | 356 ft | 3 kts | 295° |
| 2026-05-04 19:18 | 52.16223 | 20.97962 | 361 ft | 47 kts | 295° |
| 2026-05-04 19:18 | 52.16451 | 20.97153 | 355 ft | 118 kts | 294° |
| 2026-05-04 19:18 | 52.16911 | 20.95551 | 468 ft | 179 kts | 294° |
| 2026-05-04 19:19 | 52.17459 | 20.93591 | 1079 ft | 202 kts | 292° |
| 2026-05-04 19:19 | 52.18105 | 20.91421 | 1719 ft | 231 kts | 297° |
| 2026-05-04 19:19 | 52.19133 | 20.89243 | 2497 ft | 253 kts | 315° |
| 2026-05-04 19:19 | 52.20696 | 20.87759 | 3399 ft | 270 kts | 333° |
| 2026-05-04 19:20 | 52.22352 | 20.86352 | 4623 ft | 263 kts | 324° |
| 2026-05-04 19:20 | 52.23851 | 20.84687 | 5868 ft | 260 kts | 318° |
| 2026-05-04 19:20 | 52.25165 | 20.82719 | 6934 ft | 261 kts | 311° |
| 2026-05-04 19:20 | 52.26548 | 20.80752 | 7962 ft | 268 kts | 322° |
| 2026-05-04 19:21 | 52.28251 | 20.79427 | 8988 ft | 277 kts | 341° |
| 2026-05-04 19:21 | 52.30222 | 20.79046 | 9733 ft | 301 kts | 1° |
| 2026-05-04 19:21 | 52.32320 | 20.80089 | 9957 ft | 340 kts | 29° |
| 2026-05-04 19:21 | 52.34104 | 20.82840 | 10022 ft | 360 kts | 56° |
| 2026-05-04 19:22 | 52.34982 | 20.86606 | 10025 ft | 355 kts | 82° |
| 2026-05-04 19:22 | 52.35178 | 20.90622 | 10025 ft | 354 kts | 91° |
| 2026-05-04 19:22 | 52.35103 | 20.94647 | 10036 ft | 353 kts | 95° |
| 2026-05-04 19:22 | 52.34929 | 20.98655 | 10025 ft | 353 kts | 96° |
| 2026-05-04 19:23 | 52.34759 | 21.02660 | 10030 ft | 353 kts | 95° |
| 2026-05-04 19:23 | 52.34636 | 21.06675 | 10029 ft | 354 kts | 94° |
| 2026-05-04 19:23 | 52.34538 | 21.10690 | 10030 ft | 353 kts | 94° |
| 2026-05-04 19:23 | 52.34385 | 21.14696 | 10030 ft | 353 kts | 95° |
| 2026-05-04 19:24 | 52.34195 | 21.18695 | 10029 ft | 353 kts | 96° |
| 2026-05-04 19:24 | 52.33987 | 21.22687 | 10021 ft | 353 kts | 96° |
| 2026-05-04 19:24 | 52.33774 | 21.26688 | 10020 ft | 353 kts | 96° |
| 2026-05-04 19:24 | 52.33562 | 21.30686 | 10023 ft | 353 kts | 96° |
| 2026-05-04 19:25 | 52.33355 | 21.34689 | 10018 ft | 353 kts | 96° |
| 2026-05-04 19:25 | 52.33153 | 21.38692 | 10015 ft | 354 kts | 96° |
| 2026-05-04 19:25 | 52.32955 | 21.42698 | 10014 ft | 354 kts | 96° |
| 2026-05-04 19:25 | 52.32920 | 21.46722 | 10020 ft | 354 kts | 89° |
| 2026-05-04 19:26 | 52.32994 | 21.50702 | 10016 ft | 354 kts | 89° |
| 2026-05-04 19:26 | 52.33066 | 21.54732 | 10017 ft | 354 kts | 89° |
| 2026-05-04 19:26 | 52.33133 | 21.58756 | 10027 ft | 355 kts | 90° |
| 2026-05-04 19:26 | 52.33195 | 21.62838 | 10569 ft | 361 kts | 90° |
| 2026-05-04 19:27 | 52.33254 | 21.66948 | 11455 ft | 364 kts | 90° |
| 2026-05-04 19:27 | 52.33313 | 21.71117 | 12251 ft | 369 kts | 90° |
| 2026-05-04 19:27 | 52.33373 | 21.75339 | 13013 ft | 374 kts | 90° |
| 2026-05-04 19:27 | 52.33429 | 21.79622 | 13749 ft | 380 kts | 90° |
| 2026-05-04 19:28 | 52.33487 | 21.83959 | 14429 ft | 383 kts | 90° |
| 2026-05-04 19:28 | 52.33545 | 21.88336 | 15129 ft | 387 kts | 90° |
| 2026-05-04 19:28 | 52.33486 | 21.92743 | 15812 ft | 389 kts | 97° |
| 2026-05-04 19:28 | 52.33225 | 21.97161 | 16490 ft | 392 kts | 98° |
| 2026-05-04 19:29 | 52.32951 | 22.01627 | 17162 ft | 396 kts | 98° |
| 2026-05-04 19:29 | 52.32702 | 22.06139 | 17782 ft | 402 kts | 94° |
| 2026-05-04 19:29 | 52.32899 | 22.10707 | 17983 ft | 405 kts | 80° |
| 2026-05-04 19:29 | 52.33734 | 22.15107 | 18029 ft | 406 kts | 66° |
| 2026-05-04 19:30 | 52.35155 | 22.19079 | 18026 ft | 405 kts | 52° |
| 2026-05-04 19:30 | 52.37069 | 22.22447 | 18027 ft | 404 kts | 38° |
| 2026-05-04 19:30 | 52.39267 | 22.25285 | 18034 ft | 401 kts | 36° |
| 2026-05-04 19:30 | 52.41560 | 22.27849 | 18031 ft | 398 kts | 27° |
| 2026-05-04 19:31 | 52.44047 | 22.29779 | 18024 ft | 394 kts | 17° |
| 2026-05-04 19:31 | 52.46666 | 22.31032 | 18022 ft | 391 kts | 9° |
| 2026-05-04 19:31 | 52.49329 | 22.31973 | 18076 ft | 393 kts | 9° |
| 2026-05-04 19:31 | 52.52014 | 22.32921 | 18680 ft | 396 kts | 9° |
| 2026-05-04 19:32 | 52.54678 | 22.33863 | 19290 ft | 398 kts | 9° |
| 2026-05-04 19:32 | 52.57396 | 22.34825 | 19877 ft | 401 kts | 9° |
| 2026-05-04 19:32 | 52.60130 | 22.35796 | 20454 ft | 404 kts | 9° |
| 2026-05-04 19:32 | 52.62888 | 22.36781 | 21030 ft | 406 kts | 9° |
| 2026-05-04 19:33 | 52.65661 | 22.37778 | 21574 ft | 410 kts | 9° |
| 2026-05-04 19:33 | 52.67546 | 22.38456 | 21947 ft | 412 kts | 9° |
| 2026-05-04 19:33 | 52.70353 | 22.39468 | 22489 ft | 415 kts | 10° |
| 2026-05-04 19:33 | 52.73184 | 22.40488 | 23017 ft | 418 kts | 9° |
| 2026-05-04 19:34 | 52.75978 | 22.41512 | 23519 ft | 421 kts | 12° |
| 2026-05-04 19:34 | 52.78807 | 22.43094 | 23948 ft | 427 kts | 20° |
| 2026-05-04 19:34 | 52.81550 | 22.45007 | 24397 ft | 429 kts | 20° |
| 2026-05-04 19:34 | 52.84285 | 22.46900 | 24834 ft | 430 kts | 20° |
| 2026-05-04 19:35 | 52.87021 | 22.48790 | 25274 ft | 433 kts | 20° |
| 2026-05-04 19:35 | 52.89804 | 22.50723 | 25691 ft | 435 kts | 20° |
| 2026-05-04 19:35 | 52.92599 | 22.52670 | 26114 ft | 437 kts | 20° |
| 2026-05-04 19:35 | 52.95408 | 22.54637 | 26534 ft | 439 kts | 20° |
| 2026-05-04 19:36 | 52.98219 | 22.56615 | 26950 ft | 441 kts | 20° |
| 2026-05-04 19:36 | 53.01061 | 22.58616 | 27361 ft | 443 kts | 19° |
| 2026-05-04 19:36 | 53.03906 | 22.60618 | 27773 ft | 445 kts | 19° |
| 2026-05-04 19:36 | 53.06763 | 22.62631 | 28179 ft | 447 kts | 19° |
| 2026-05-04 19:37 | 53.09639 | 22.64656 | 28584 ft | 450 kts | 19° |
| 2026-05-04 19:37 | 53.12532 | 22.66700 | 28934 ft | 453 kts | 19° |
| 2026-05-04 19:37 | 53.15435 | 22.68755 | 29295 ft | 455 kts | 19° |
| 2026-05-04 19:37 | 53.18359 | 22.70826 | 29655 ft | 457 kts | 19° |
| 2026-05-04 19:38 | 53.21293 | 22.72907 | 30009 ft | 459 kts | 19° |
| 2026-05-04 19:38 | 53.24241 | 22.75000 | 30293 ft | 461 kts | 19° |
| 2026-05-04 19:38 | 53.27199 | 22.77104 | 30583 ft | 463 kts | 19° |
| 2026-05-04 19:38 | 53.30169 | 22.79217 | 30870 ft | 465 kts | 19° |
| 2026-05-04 19:39 | 53.33144 | 22.81339 | 31005 ft | 461 kts | 19° |
| 2026-05-04 19:39 | 53.36040 | 22.83418 | 31011 ft | 447 kts | 19° |
| 2026-05-04 19:39 | 53.38839 | 22.85433 | 31009 ft | 441 kts | 19° |
| 2026-05-04 19:40 | 53.44463 | 22.89478 | 31012 ft | 439 kts | 19° |
| 2026-05-04 19:40 | 53.50072 | 22.93518 | 31017 ft | 439 kts | 19° |
| 2026-05-04 19:41 | 53.55677 | 22.97559 | 31034 ft | 439 kts | 18° |
| 2026-05-04 19:41 | 53.61300 | 23.01608 | 31010 ft | 439 kts | 18° |
| 2026-05-04 19:42 | 53.66920 | 23.05687 | 31011 ft | 440 kts | 18° |
| 2026-05-04 19:42 | 53.72543 | 23.09789 | 31013 ft | 440 kts | 18° |
| 2026-05-04 19:43 | 53.78156 | 23.13889 | 31015 ft | 440 kts | 18° |
| 2026-05-04 19:43 | 53.80971 | 23.15948 | 30783 ft | 441 kts | 18° |
| 2026-05-04 19:43 | 53.83784 | 23.18008 | 30535 ft | 441 kts | 18° |
| 2026-05-04 19:43 | 53.86599 | 23.20070 | 30288 ft | 441 kts | 18° |
| 2026-05-04 19:44 | 53.89384 | 23.22114 | 30056 ft | 442 kts | 19° |
| 2026-05-04 19:44 | 53.92199 | 23.24187 | 29772 ft | 441 kts | 19° |
| 2026-05-04 19:44 | 53.95007 | 23.26263 | 29483 ft | 439 kts | 19° |
| 2026-05-04 19:44 | 53.97796 | 23.28341 | 29093 ft | 436 kts | 21° |
| 2026-05-04 19:45 | 54.00419 | 23.30982 | 29002 ft | 442 kts | 33° |
| 2026-05-04 19:45 | 54.02729 | 23.34483 | 29039 ft | 450 kts | 44° |
| 2026-05-04 19:45 | 54.04630 | 23.38751 | 29022 ft | 456 kts | 57° |
| 2026-05-04 19:45 | 54.05994 | 23.43633 | 29023 ft | 459 kts | 70° |
| 2026-05-04 19:46 | 54.06815 | 23.48884 | 29026 ft | 460 kts | 76° |
| 2026-05-04 19:46 | 54.08998 | 23.59006 | 29028 ft | 459 kts | 64° |
| 2026-05-04 19:47 | 54.11598 | 23.68913 | 28043 ft | 465 kts | 64° |
| 2026-05-04 19:47 | 54.12926 | 23.73972 | 27092 ft | 468 kts | 65° |
| 2026-05-04 19:47 | 54.14247 | 23.79021 | 26397 ft | 465 kts | 65° |
| 2026-05-04 19:47 | 54.15542 | 23.83996 | 25771 ft | 461 kts | 65° |
| 2026-05-04 19:48 | 54.16831 | 23.88975 | 25184 ft | 457 kts | 66° |
| 2026-05-04 19:48 | 54.18106 | 23.93921 | 24574 ft | 454 kts | 66° |
| 2026-05-04 19:48 | 54.19370 | 23.98830 | 23970 ft | 451 kts | 66° |
| 2026-05-04 19:48 | 54.20627 | 24.03719 | 23399 ft | 446 kts | 66° |
| 2026-05-04 19:49 | 54.21863 | 24.08538 | 22806 ft | 441 kts | 66° |
| 2026-05-04 19:49 | 54.23088 | 24.13329 | 22188 ft | 437 kts | 66° |
| 2026-05-04 19:49 | 54.24299 | 24.18064 | 21580 ft | 433 kts | 66° |
| 2026-05-04 19:49 | 54.25478 | 24.22680 | 20996 ft | 430 kts | 66° |
| 2026-05-04 19:50 | 54.26733 | 24.27379 | 20408 ft | 427 kts | 60° |
| 2026-05-04 19:50 | 54.28420 | 24.31502 | 19839 ft | 421 kts | 46° |
| 2026-05-04 19:50 | 54.30578 | 24.34830 | 19284 ft | 415 kts | 32° |
| 2026-05-04 19:50 | 54.33068 | 24.37221 | 18739 ft | 408 kts | 20° |
| 2026-05-04 19:51 | 54.35659 | 24.39174 | 18213 ft | 406 kts | 20° |
| 2026-05-04 19:51 | 54.38138 | 24.41051 | 17657 ft | 403 kts | 20° |
| 2026-05-04 19:51 | 54.40697 | 24.42997 | 17109 ft | 400 kts | 20° |
| 2026-05-04 19:51 | 54.43229 | 24.44932 | 16585 ft | 397 kts | 20° |
| 2026-05-04 19:52 | 54.45741 | 24.46854 | 16072 ft | 394 kts | 20° |
| 2026-05-04 19:52 | 54.48231 | 24.48759 | 15754 ft | 386 kts | 20° |
| 2026-05-04 19:52 | 54.50565 | 24.50926 | 15623 ft | 378 kts | 33° |
| 2026-05-04 19:52 | 54.52344 | 24.53937 | 15501 ft | 371 kts | 51° |
| 2026-05-04 19:53 | 54.53549 | 24.57776 | 15362 ft | 363 kts | 70° |
| 2026-05-04 19:53 | 54.54204 | 24.61934 | 15137 ft | 356 kts | 76° |
| 2026-05-04 19:53 | 54.54795 | 24.66078 | 14810 ft | 354 kts | 76° |
| 2026-05-04 19:53 | 54.55372 | 24.70182 | 14463 ft | 352 kts | 76° |
| 2026-05-04 19:54 | 54.55943 | 24.74280 | 14123 ft | 351 kts | 76° |
| 2026-05-04 19:54 | 54.56513 | 24.78364 | 13800 ft | 350 kts | 76° |
| 2026-05-04 19:54 | 54.57069 | 24.82327 | 13430 ft | 349 kts | 76° |
| 2026-05-04 19:54 | 54.57640 | 24.86384 | 13082 ft | 346 kts | 76° |
| 2026-05-04 19:55 | 54.58072 | 24.90402 | 12942 ft | 336 kts | 90° |
| 2026-05-04 19:55 | 54.57740 | 24.94280 | 12811 ft | 321 kts | 114° |
| 2026-05-04 19:55 | 54.56673 | 24.97530 | 12577 ft | 306 kts | 136° |
| 2026-05-04 19:55 | 54.55146 | 25.00005 | 12260 ft | 300 kts | 145° |
| 2026-05-04 19:56 | 54.53571 | 25.02343 | 11936 ft | 299 kts | 145° |
| 2026-05-04 19:56 | 54.52014 | 25.04638 | 11617 ft | 298 kts | 145° |
| 2026-05-04 19:56 | 54.50418 | 25.06980 | 10954 ft | 309 kts | 145° |
| 2026-05-04 19:56 | 54.48736 | 25.09439 | 10139 ft | 325 kts | 144° |
| 2026-05-04 19:57 | 54.47191 | 25.12404 | 9241 ft | 347 kts | 122° |
| 2026-05-04 19:57 | 54.46558 | 25.16429 | 8680 ft | 351 kts | 90° |
| 2026-05-04 19:57 | 54.47104 | 25.20304 | 8657 ft | 326 kts | 58° |
| 2026-05-04 19:57 | 54.48541 | 25.22972 | 8799 ft | 290 kts | 25° |
| 2026-05-04 19:58 | 54.50355 | 25.23971 | 8584 ft | 267 kts | 359° |
| 2026-05-04 19:58 | 54.52196 | 25.24272 | 8201 ft | 265 kts | 359° |
| 2026-05-04 19:58 | 54.54062 | 25.24519 | 7323 ft | 272 kts | 356° |
| 2026-05-04 19:58 | 54.55964 | 25.24512 | 5700 ft | 279 kts | 352° |
| 2026-05-04 19:59 | 54.57876 | 25.24467 | 4314 ft | 267 kts | 3° |
| 2026-05-04 19:59 | 54.59473 | 25.25790 | 3221 ft | 243 kts | 27° |
| 2026-05-04 19:59 | 54.60949 | 25.26902 | 1945 ft | 222 kts | 15° |
| 2026-05-04 19:59 | 54.62354 | 25.27838 | 831 ft | 210 kts | 21° |
| 2026-05-04 20:00 | 54.63572 | 25.28679 | 622 ft | 163 kts | 21° |
| 2026-05-04 20:00 | 54.64328 | 25.29204 | 656 ft | 48 kts | 23° |
| 2026-05-04 20:00 | 54.64441 | 25.29263 | 661 ft | 13 kts | 346° |
| 2026-05-04 20:00 | 54.64494 | 25.29150 | 657 ft | 0 kts | 298° |
| 2026-05-04 20:03 | 54.64497 | 25.29140 | 656 ft | 6 kts | 298° |
| 2026-05-04 20:03 | 54.64543 | 25.28992 | 657 ft | 19 kts | 298° |
| 2026-05-04 20:04 | 54.64557 | 25.28810 | 656 ft | 20 kts | 257° |
| 2026-05-04 20:04 | 54.64539 | 25.28654 | 656 ft | 9 kts | 252° |
| 2026-05-04 20:04 | 54.64504 | 25.28520 | 648 ft | 0 kts | 254° |
| 2026-05-04 20:04 | 54.64502 | 25.28510 | 648 ft | 6 kts | 254° |
| 2026-05-04 20:05 | 54.64479 | 25.28464 | 646 ft | 5 kts | 203° |
| 2026-05-04 20:05 | 54.64450 | 25.28456 | 647 ft | 3 kts | 180° |
| 2026-05-04 20:05 | 54.64444 | 25.28456 | 647 ft | 0 kts | 178° |